Time;durP1;ratioP1;P1;durP2;ratioP2;P2;SDS_P1;SDS_P2;PMS_P1;PMS_P2;Temp;Humidity;BMP_temperature;BMP_pressure;BME280_temperature;BME280_humidity;BME280_pressure;Samples;Min_cycle;Max_cycle;Signal;HPM_P1;HPM_P2
2022/03/01 00:00:18;;;;;;;51.67;22.17;;;;;;;-4.31;70.88;102689.95;1686322;85;21035;-78
2022/03/01 00:02:47;;;;;;;47.75;20.75;;;;;;;-4.34;70.88;102685.05;1686257;85;21055;-78
2022/03/01 00:05:14;;;;;;;46.07;22.30;;;;;;;-4.34;71.08;102687.61;1686265;85;21524;-78
2022/03/01 00:07:41;;;;;;;49.27;22.73;;;;;;;-4.35;71.17;102685.45;1685968;85;21000;-78
2022/03/01 00:10:09;;;;;;;46.90;21.23;;;;;;;-4.36;71.14;102682.38;1686428;85;21024;-78
2022/03/01 00:12:36;;;;;;;53.63;22.23;;;;;;;-4.36;71.23;102681.11;1686069;85;21095;-78
2022/03/01 00:15:05;;;;;;;48.10;20.50;;;;;;;-4.36;71.14;102682.79;1686442;85;21035;-78
2022/03/01 00:17:32;;;;;;;50.57;21.17;;;;;;;-4.38;71.18;102685.64;1686035;85;21019;-78
2022/03/01 00:19:59;;;;;;;63.43;25.70;;;;;;;-4.41;71.17;102685.06;1686295;85;21040;-78
2022/03/01 00:22:27;;;;;;;55.60;23.00;;;;;;;-4.44;71.17;102682.31;1686079;85;21083;-78
2022/03/01 00:24:54;;;;;;;50.93;22.30;;;;;;;-4.42;71.24;102683.30;1672510;85;21502;-78
2022/03/01 00:27:21;;;;;;;46.67;21.27;;;;;;;-4.42;71.31;102684.58;1659459;86;21213;-78
2022/03/01 00:29:48;;;;;;;47.03;21.70;;;;;;;-4.41;71.31;102688.02;1659195;86;21042;-77
2022/03/01 00:32:15;;;;;;;50.80;21.60;;;;;;;-4.42;71.36;102684.58;1659322;86;21038;-78
2022/03/01 00:34:42;;;;;;;56.93;23.83;;;;;;;-4.35;71.57;102675.58;1659357;85;21055;-78
2022/03/01 00:37:09;;;;;;;45.00;20.07;;;;;;;-4.30;71.51;102676.75;1659267;86;21004;-78
2022/03/01 00:39:36;;;;;;;56.90;23.40;;;;;;;-4.29;71.32;102677.26;1659334;86;21938;-78
2022/03/01 00:42:04;;;;;;;62.87;25.10;;;;;;;-4.29;71.42;102674.70;1659283;86;21416;-78
2022/03/01 00:44:31;;;;;;;65.43;26.97;;;;;;;-4.27;71.47;102676.93;1659591;86;20999;-78
2022/03/01 00:46:58;;;;;;;62.30;25.20;;;;;;;-4.29;71.39;102681.09;1659354;86;21019;-78
2022/03/01 00:49:26;;;;;;;59.63;24.73;;;;;;;-4.29;71.46;102678.14;1659266;86;21592;-78
2022/03/01 00:51:53;;;;;;;55.67;23.70;;;;;;;-4.26;71.52;102679.59;1659322;86;21118;-78
2022/03/01 00:54:20;;;;;;;49.03;22.77;;;;;;;-4.27;71.47;102677.84;1659203;84;21035;-78
2022/03/01 00:56:49;;;;;;;50.83;22.23;;;;;;;-4.30;71.34;102681.87;1659076;86;20999;-78
2022/03/01 00:59:16;;;;;;;54.13;22.70;;;;;;;-4.36;71.39;102682.38;1659361;86;21026;-78
2022/03/01 01:01:43;;;;;;;51.67;21.27;;;;;;;-4.37;71.47;102686.16;1659272;86;21012;-78
2022/03/01 01:04:10;;;;;;;53.60;22.40;;;;;;;-4.41;71.44;102683.78;1659342;86;21775;-78
2022/03/01 01:06:37;;;;;;;48.17;21.40;;;;;;;-4.43;71.58;102687.95;1659212;85;21010;-78
2022/03/01 01:09:04;;;;;;;49.30;22.00;;;;;;;-4.42;71.66;102690.98;1659362;86;21078;-78
2022/03/01 01:11:32;;;;;;;47.80;22.27;;;;;;;-4.41;71.81;102689.30;1659345;86;20987;-78
2022/03/01 01:13:59;;;;;;;48.30;22.20;;;;;;;-4.41;71.73;102697.86;1659260;86;21074;-77
2022/03/01 01:16:26;;;;;;;45.13;19.67;;;;;;;-4.45;71.74;102696.32;1659372;86;21112;-78
2022/03/01 01:18:54;;;;;;;45.30;21.50;;;;;;;-4.43;71.94;102695.63;1659176;85;21552;-78
2022/03/01 01:21:21;;;;;;;40.53;20.53;;;;;;;-4.43;71.76;102689.59;1659339;86;21039;-79
2022/03/01 01:23:49;;;;;;;44.90;20.33;;;;;;;-4.43;71.76;102689.59;1659575;86;21035;-78
2022/03/01 01:26:16;;;;;;;47.83;20.30;;;;;;;-4.38;72.06;102694.23;1660995;85;21027;-79
2022/03/01 01:28:43;;;;;;;43.87;19.70;;;;;;;-4.36;71.99;102695.59;1661770;85;21104;-77
2022/03/01 01:31:10;;;;;;;38.97;17.47;;;;;;;-4.34;72.04;102695.30;1663312;85;21535;-79
2022/03/01 01:33:37;;;;;;;42.43;20.10;;;;;;;-4.28;72.12;102697.81;1666329;86;21026;-79
2022/03/01 01:36:04;;;;;;;43.03;19.60;;;;;;;-4.27;71.96;102697.41;1665981;86;21626;-79
2022/03/01 01:38:31;;;;;;;38.30;18.77;;;;;;;-4.29;71.97;102697.34;1666408;86;21004;-79
2022/03/01 01:40:58;;;;;;;39.00;18.37;;;;;;;-4.29;71.86;102696.46;1666096;86;21096;-79
2022/03/01 01:43:25;;;;;;;39.23;18.93;;;;;;;-4.34;71.84;102701.30;1666360;86;21478;-78
2022/03/01 01:45:52;;;;;;;45.17;19.17;;;;;;;-4.40;71.64;102708.61;1668595;86;21063;-79
2022/03/01 01:48:20;;;;;;;45.03;19.77;;;;;;;-4.44;71.73;102705.76;1666316;86;21420;-78
2022/03/01 01:50:47;;;;;;;43.20;18.17;;;;;;;-4.48;71.67;102708.53;1665995;86;21075;-80
2022/03/01 01:53:15;;;;;;;42.00;17.73;;;;;;;-4.53;71.68;102706.09;1666057;86;21137;-78
2022/03/01 01:55:42;;;;;;;39.00;18.00;;;;;;;-4.54;71.87;102696.25;1666509;86;21034;-78
2022/03/01 01:58:09;;;;;;;38.30;17.73;;;;;;;-4.51;72.08;102705.80;1666073;86;21513;-78
2022/03/01 02:00:36;;;;;;;38.07;18.97;;;;;;;-4.52;71.96;102707.84;1666158;86;21030;-79
2022/03/01 02:03:04;;;;;;;38.30;17.70;;;;;;;-4.56;72.00;102708.06;1666091;86;21496;-79
2022/03/01 02:05:31;;;;;;;40.00;19.03;;;;;;;-4.56;72.06;102711.02;1666174;86;22221;-79
2022/03/01 02:07:58;;;;;;;37.97;17.33;;;;;;;-4.57;72.09;102706.67;1666231;85;21018;-80
2022/03/01 02:10:26;;;;;;;36.63;16.47;;;;;;;-4.60;72.00;102703.92;1671332;84;21011;-79
2022/03/01 02:12:56;;;;;;;36.87;17.13;;;;;;;-4.65;71.93;102706.22;1666004;86;21408;-78
2022/03/01 02:15:24;;;;;;;34.13;16.97;;;;;;;-4.69;71.98;102710.64;1666368;86;21030;-78
2022/03/01 02:17:51;;;;;;;39.63;18.40;;;;;;;-4.73;72.02;102708.30;1666343;85;21145;-79
2022/03/01 02:20:21;;;;;;;35.33;16.60;;;;;;;-4.73;72.20;102715.98;1666189;86;20940;-79
2022/03/01 02:22:55;;;;;;;39.88;16.65;;;;;;;-4.73;72.20;102709.98;1666230;86;21508;-78
2022/03/01 02:25:23;;;;;;;43.67;19.43;;;;;;;-4.74;72.28;102704.34;1666079;84;20995;-79
2022/03/01 02:27:52;;;;;;;41.70;18.83;;;;;;;-4.71;72.50;102704.17;1666052;86;21026;-79
2022/03/01 02:30:19;;;;;;;43.23;20.57;;;;;;;-4.71;72.31;102706.73;1668765;86;21564;-78
2022/03/01 02:32:47;;;;;;;41.07;17.83;;;;;;;-4.72;72.39;102702.78;1666057;86;21022;-79
2022/03/01 02:35:15;;;;;;;33.23;16.17;;;;;;;-4.72;72.39;102702.38;1666238;85;21019;-79
2022/03/01 02:37:45;;;;;;;36.80;18.10;;;;;;;-4.69;72.42;102703.37;1666366;85;21019;-78
2022/03/01 02:40:13;;;;;;;;;;;;;;;-4.71;72.42;102696.89;1668837;86;21041;-78
2022/03/01 02:42:45;;;;;;;40.27;16.80;;;;;;;-4.69;72.54;102699.12;1666178;85;21143;-79
2022/03/01 02:45:17;;;;;;;38.67;17.37;;;;;;;-4.74;72.40;102695.03;1668776;84;21027;-78
2022/03/01 02:47:45;;;;;;;36.03;16.90;;;;;;;-4.78;72.39;102695.61;1666370;86;21086;-79
2022/03/01 02:50:14;;;;;;;38.83;18.13;;;;;;;-4.81;72.37;102692.86;1666025;86;21285;-81
2022/03/01 02:52:41;;;;;;;45.70;19.03;;;;;;;-4.85;72.36;102697.31;1668799;85;21034;-79
2022/03/01 02:55:09;;;;;;;40.93;17.23;;;;;;;-4.88;72.36;102691.98;1668674;86;21770;-79
2022/03/01 02:57:36;;;;;;;38.90;17.97;;;;;;;-4.90;72.47;102684.63;1668791;86;21520;-79
2022/03/01 03:00:06;;;;;;;40.47;18.43;;;;;;;-4.92;72.50;102688.75;1668619;85;21059;-79
2022/03/01 03:02:34;;;;;;;42.98;18.73;;;;;;;-4.95;72.55;102685.61;1669067;86;21015;-79
2022/03/01 03:05:01;;;;;;;38.97;17.57;;;;;;;-4.94;72.75;102686.48;1668555;86;21026;-81
2022/03/01 03:07:28;;;;;;;35.13;17.13;;;;;;;-4.93;72.79;102683.16;1668925;86;21108;-79
2022/03/01 03:09:55;;;;;;;38.63;17.73;;;;;;;-4.94;72.78;102682.25;1665914;86;21078;-79
2022/03/01 03:12:22;;;;;;;37.67;16.93;;;;;;;-4.94;72.82;102686.09;1666450;85;21520;-79
2022/03/01 03:14:50;;;;;;;37.47;17.83;;;;;;;-4.92;72.83;102680.20;1666014;86;21051;-79
2022/03/01 03:17:17;;;;;;;44.93;19.10;;;;;;;-4.92;72.79;102685.31;1668808;86;21042;-79
2022/03/01 03:19:44;;;;;;;40.27;18.33;;;;;;;-4.92;72.79;102682.76;1668570;86;21107;-79
2022/03/01 03:22:11;;;;;;;35.10;17.67;;;;;;;-4.94;72.72;102685.20;1668813;86;22152;-79
2022/03/01 03:24:38;;;;;;;37.43;17.47;;;;;;;-4.96;72.70;102681.66;1668695;86;21074;-79
2022/03/01 03:27:05;;;;;;;38.47;17.93;;;;;;;-4.99;72.73;102678.91;1668253;85;21015;-79
2022/03/01 03:29:33;;;;;;;41.33;17.77;;;;;;;-5.00;72.85;102672.92;1668598;86;21026;-79
2022/03/01 03:32:00;;;;;;;37.47;18.23;;;;;;;-5.00;72.90;102678.44;1668666;86;21112;-79
2022/03/01 03:34:27;;;;;;;39.90;18.37;;;;;;;-5.00;72.92;102684.83;1668593;86;21034;-79
2022/03/01 03:36:54;;;;;;;38.77;18.27;;;;;;;-5.00;72.96;102680.99;1668806;86;21086;-80
2022/03/01 03:39:21;;;;;;;35.83;18.27;;;;;;;-5.02;72.90;102687.67;1668600;86;21042;-79
2022/03/01 03:41:48;;;;;;;43.10;19.90;;;;;;;-5.06;72.89;102680.21;1668879;86;21516;-80
2022/03/01 03:44:16;;;;;;;41.93;19.27;;;;;;;-5.08;72.99;102677.95;1668654;86;21520;-79
2022/03/01 03:46:43;;;;;;;42.03;19.50;;;;;;;-5.09;73.03;102681.30;1668901;86;21456;-79
2022/03/01 03:49:10;;;;;;;40.13;18.13;;;;;;;-5.10;73.05;102674.40;1668663;86;21039;-79
2022/03/01 03:51:37;;;;;;;42.23;19.90;;;;;;;-5.12;72.98;102677.28;1668850;84;21094;-79
2022/03/01 03:54:04;;;;;;;40.97;19.73;;;;;;;-5.15;73.02;102678.36;1668613;86;21090;-80
2022/03/01 03:56:31;;;;;;;43.07;21.03;;;;;;;-5.18;73.02;102679.05;1668809;86;21098;-79
2022/03/01 03:58:59;;;;;;;41.03;19.53;;;;;;;-5.20;73.12;102673.34;1668568;86;21010;-79
2022/03/01 04:01:26;;;;;;;41.83;19.27;;;;;;;-5.22;73.08;102680.03;1668881;86;21007;-79
2022/03/01 04:03:53;;;;;;;42.87;20.07;;;;;;;-5.25;73.23;102673.44;1668524;86;21087;-79
2022/03/01 04:06:20;;;;;;;47.23;22.83;;;;;;;-5.26;73.37;102671.28;1668902;86;21216;-79
2022/03/01 04:08:47;;;;;;;44.73;19.97;;;;;;;-5.25;73.67;102673.05;1668513;86;21965;-79
2022/03/01 04:11:14;;;;;;;43.97;20.83;;;;;;;-5.21;73.77;102669.00;1668832;86;21485;-79
2022/03/01 04:13:41;;;;;;;38.63;18.97;;;;;;;-5.19;73.61;102669.59;1668674;86;20987;-79
2022/03/01 04:16:08;;;;;;;43.30;21.13;;;;;;;-5.21;73.53;102668.63;1669016;86;21295;-79
2022/03/01 04:18:35;;;;;;;46.50;18.90;;;;;;;-5.24;73.56;102663.33;1668799;86;21066;-80
2022/03/01 04:21:04;;;;;;;40.17;18.83;;;;;;;-5.25;73.42;102672.16;1668889;86;21946;-79
2022/03/01 04:23:32;;;;;;;41.00;19.43;;;;;;;-5.29;73.46;102666.34;1668743;86;21042;-79
2022/03/01 04:25:59;;;;;;;45.93;20.67;;;;;;;-5.32;73.50;102657.21;1665383;84;21086;-79
2022/03/01 04:28:27;;;;;;;45.90;19.80;;;;;;;-5.32;73.60;102658.13;1659306;86;21063;-79
2022/03/01 04:30:54;;;;;;;44.93;20.50;;;;;;;-5.34;73.62;102657.13;1659623;86;21524;-79
2022/03/01 04:33:22;;;;;;;40.43;20.10;;;;;;;-5.33;73.64;102651.62;1659420;86;21110;-79
2022/03/01 04:35:49;;;;;;;38.53;17.90;;;;;;;-5.34;73.71;102649.47;1659550;86;21036;-79
2022/03/01 04:38:17;;;;;;;37.83;19.07;;;;;;;-5.35;73.51;102644.23;1659284;86;21012;-79
2022/03/01 04:40:44;;;;;;;44.13;19.43;;;;;;;-5.40;73.55;102641.02;1659488;86;21003;-79
2022/03/01 04:43:11;;;;;;;41.70;18.60;;;;;;;-5.41;73.63;102645.61;1659364;86;21007;-79
2022/03/01 04:45:38;;;;;;;44.30;18.83;;;;;;;-5.41;73.73;102639.63;1659563;86;21100;-79
2022/03/01 04:48:05;;;;;;;45.10;19.10;;;;;;;-5.41;73.71;102637.06;1659418;86;21031;-79
2022/03/01 04:50:32;;;;;;;43.50;19.60;;;;;;;-5.41;73.68;102637.95;1659353;86;21524;-79
2022/03/01 04:52:59;;;;;;;47.67;20.87;;;;;;;-5.42;73.87;102631.08;1659500;86;20988;-81
2022/03/01 04:55:27;;;;;;;43.43;19.90;;;;;;;-5.40;73.89;102621.84;1659436;86;21550;-79
2022/03/01 04:57:54;;;;;;;47.23;20.13;;;;;;;-5.36;74.11;102619.48;1659571;86;21052;-79
2022/03/01 05:00:21;;;;;;;41.73;20.13;;;;;;;-5.36;73.97;102617.80;1659261;86;21046;-79
2022/03/01 05:02:49;;;;;;;43.73;20.43;;;;;;;-5.30;74.15;102615.63;1659477;84;21019;-79
2022/03/01 05:05:16;;;;;;;47.47;21.43;;;;;;;-5.28;74.13;102614.45;1659258;86;21039;-79
2022/03/01 05:07:47;;;;;;;38.43;20.13;;;;;;;-5.26;74.20;102604.82;1659607;86;21007;-79
2022/03/01 05:10:18;;;;;;;47.07;21.20;;;;;;;-5.24;74.31;102601.98;1659387;86;21216;-80
2022/03/01 05:12:54;;;;;;;41.37;19.98;;;;;;;-5.20;74.29;102608.16;1659551;86;21039;-81
2022/03/01 05:15:24;;;;;;;41.23;20.00;;;;;;;-5.24;73.93;102598.14;1659270;86;21083;-79
2022/03/01 05:17:52;;;;;;;45.20;19.17;;;;;;;-5.33;73.61;102589.87;1659712;86;20999;-79
2022/03/01 05:20:20;;;;;;;42.40;20.20;;;;;;;-5.37;73.65;102590.89;1659321;86;21108;-79
2022/03/01 05:22:48;;;;;;;41.27;20.27;;;;;;;-5.42;73.55;102584.20;1659480;86;21067;-79
2022/03/01 05:25:18;;;;;;;45.37;19.33;;;;;;;-5.47;73.43;102580.06;1659210;86;21036;-79
2022/03/01 05:27:47;;;;;;;39.80;19.50;;;;;;;-5.50;73.62;102582.83;1685103;85;21052;-79
2022/03/01 05:30:16;;;;;;;45.73;19.87;;;;;;;-5.46;74.45;102580.58;1686107;84;21040;-79
2022/03/01 05:32:47;;;;;;;45.17;19.47;;;;;;;-5.35;74.92;102575.23;1686386;85;21554;-80
2022/03/01 05:35:17;;;;;;;42.43;20.40;;;;;;;-5.25;75.10;102578.45;1685997;85;21212;-79
2022/03/01 05:37:52;;;;;;;39.67;19.62;;;;;;;-5.17;75.04;102582.37;1686342;85;21509;-80
2022/03/01 05:40:19;;;;;;;44.53;20.20;;;;;;;-5.16;74.61;102585.81;1685957;85;21453;-79
2022/03/01 05:42:46;;;;;;;38.03;18.90;;;;;;;-5.21;74.30;102594.86;1686015;85;21047;-78
2022/03/01 05:45:13;;;;;;;39.67;18.40;;;;;;;-5.24;74.24;102589.56;1687032;85;20992;-79
2022/03/01 05:47:43;;;;;;;39.10;19.27;;;;;;;-5.26;74.21;102595.00;1687590;84;49844;-81
2022/03/01 05:50:12;;;;;;;39.83;19.70;;;;;;;-5.30;74.02;102597.73;1718536;83;21044;-80
2022/03/01 05:52:39;;;;;;;41.17;19.10;;;;;;;-5.33;73.96;102599.22;1699304;83;21056;-80
2022/03/01 05:55:09;;;;;;;45.77;19.77;;;;;;;-5.37;73.81;102595.59;1687133;84;21449;-80
2022/03/01 05:57:36;;;;;;;39.55;19.65;;;;;;;-5.43;73.72;102605.04;1691040;84;21552;-78
2022/03/01 06:00:12;;;;;;;45.87;19.77;;;;;;;-5.47;73.72;102600.91;1694185;84;21113;-81
2022/03/01 06:02:43;;;;;;;48.60;21.37;;;;;;;-5.51;73.84;102602.39;1692423;84;21001;-81
2022/03/01 06:05:11;;;;;;;48.30;22.43;;;;;;;-5.49;74.18;102605.02;1693872;84;21008;-80
2022/03/01 06:07:39;;;;;;;64.90;27.50;;;;;;;-5.46;74.37;102607.77;1694170;84;20933;-80
2022/03/01 06:10:07;;;;;;;80.03;37.57;;;;;;;-5.42;74.55;102607.20;1722240;82;21023;-79
2022/03/01 06:12:35;;;;;;;69.93;33.27;;;;;;;-5.39;74.61;102613.37;1719730;82;21108;-80
2022/03/01 06:15:04;;;;;;;53.13;23.87;;;;;;;-5.32;75.13;102611.20;1710524;81;20985;-80
2022/03/01 06:17:31;;;;;;;51.73;24.27;;;;;;;-5.24;75.38;102616.03;1696177;84;21489;-79
2022/03/01 06:19:58;;;;;;;55.50;26.43;;;;;;;-5.17;75.50;102615.61;1695810;84;21047;-79
2022/03/01 06:22:26;;;;;;;68.57;32.40;;;;;;;-5.12;75.48;102601.84;1696330;83;21059;-79
2022/03/01 06:24:54;;;;;;;83.07;32.07;;;;;;;-5.06;75.51;102608.61;1695853;84;21143;-80
2022/03/01 06:27:22;;;;;;;56.43;25.97;;;;;;;-5.01;75.48;102605.07;1695879;83;21035;-79
2022/03/01 06:29:49;;;;;;;53.07;23.43;;;;;;;-4.94;75.59;102611.91;1695951;84;21039;-78
2022/03/01 06:32:16;;;;;;;47.40;22.53;;;;;;;-4.86;75.62;102612.79;1695662;84;21055;-78
2022/03/01 06:34:43;;;;;;;54.07;26.03;;;;;;;-4.80;75.57;102600.36;1696104;84;20996;-79
2022/03/01 06:37:13;;;;;;;88.50;38.73;;;;;;;-4.77;75.55;102596.31;1697364;84;21111;-78
2022/03/01 06:39:42;;;;;;;157.30;62.93;;;;;;;-4.70;75.68;102596.30;1705700;83;21610;-78
2022/03/01 06:42:11;;;;;;;123.40;55.05;;;;;;;-4.62;75.76;102599.33;1686684;83;21094;-78
2022/03/01 06:44:39;;;;;;;119.20;51.07;;;;;;;-4.52;75.81;102604.19;1691874;84;21102;-78
2022/03/01 06:47:06;;;;;;;113.73;52.07;;;;;;;-4.46;75.70;102599.83;1635844;87;21496;-78
2022/03/01 06:49:33;;;;;;;68.47;30.87;;;;;;;-4.41;75.68;102599.30;1687961;84;21099;-78
2022/03/01 06:52:01;;;;;;;56.87;29.27;;;;;;;-4.34;75.69;102593.77;1708132;83;21277;-78
2022/03/01 06:54:27;;;;;;;57.17;28.30;;;;;;;-4.25;75.70;102599.81;1729340;83;21015;-78
2022/03/01 06:56:54;;;;;;;58.00;27.47;;;;;;;-4.17;75.72;102599.87;1730074;83;21014;-78
2022/03/01 06:59:21;;;;;;;81.87;35.80;;;;;;;-4.07;75.72;102602.58;1730249;83;21254;-78
2022/03/01 07:01:48;;;;;;;143.87;64.40;;;;;;;-4.00;75.70;102596.13;1729885;83;21137;-78
2022/03/01 07:04:15;;;;;;;184.50;74.60;;;;;;;-3.92;75.67;102593.61;1730013;83;20971;-78
2022/03/01 07:06:42;;;;;;;179.13;71.33;;;;;;;-3.86;75.63;102590.98;1725027;83;21015;-78
2022/03/01 07:09:09;;;;;;;301.43;129.57;;;;;;;-3.79;75.57;102591.35;1692215;83;21522;-78
2022/03/01 07:11:37;;;;;;;273.63;114.60;;;;;;;-3.72;75.71;102590.48;1691997;83;21035;-78
2022/03/01 07:14:04;;;;;;;154.57;68.63;;;;;;;-3.62;75.87;102591.48;1696029;84;21093;-78
2022/03/01 07:16:31;;;;;;;156.23;64.83;;;;;;;-3.52;75.90;102591.62;1696028;83;21058;-78
2022/03/01 07:18:59;;;;;;;144.80;62.37;;;;;;;-3.42;75.92;102593.87;1705390;83;21462;-78
2022/03/01 07:21:26;;;;;;;143.77;63.33;;;;;;;-3.31;75.90;102586.77;1713513;83;21070;-78
2022/03/01 07:23:53;;;;;;;151.40;77.03;;;;;;;-3.19;75.88;102582.70;1711741;83;21043;-79
2022/03/01 07:26:20;;;;;;;123.73;64.73;;;;;;;-3.10;75.85;102572.95;1691075;83;21787;-78
2022/03/01 07:28:47;;;;;;;87.70;43.60;;;;;;;-2.98;75.88;102577.84;1701903;83;20995;-78
2022/03/01 07:31:14;;;;;;;55.00;28.83;;;;;;;-2.88;76.01;102579.20;1685480;84;21596;-78
2022/03/01 07:33:41;;;;;;;51.20;25.20;;;;;;;-2.78;76.15;102573.76;1684251;84;21034;-79
2022/03/01 07:36:08;;;;;;;50.80;22.73;;;;;;;-2.70;76.29;102566.93;1689949;84;21019;-78
2022/03/01 07:38:35;;;;;;;44.03;23.87;;;;;;;-2.58;76.38;102560.66;1670960;84;21066;-79
2022/03/01 07:41:02;;;;;;;112.13;47.97;;;;;;;-2.47;76.37;102563.00;1635482;86;22003;-79
2022/03/01 07:43:28;;;;;;;119.20;55.50;;;;;;;-2.38;76.21;102553.96;1661283;84;21034;-78
2022/03/01 07:45:55;;;;;;;195.63;72.83;;;;;;;-2.26;76.11;102568.73;1657519;84;21014;-79
2022/03/01 07:48:22;;;;;;;129.33;50.67;;;;;;;-2.15;76.10;102567.98;1664658;84;21006;-78
2022/03/01 07:50:49;;;;;;;71.33;35.37;;;;;;;-2.03;76.17;102564.72;1670223;86;21123;-78
2022/03/01 07:53:17;;;;;;;63.53;34.17;;;;;;;-1.90;76.05;102566.21;1670455;85;21030;-79
2022/03/01 07:55:44;;;;;;;71.07;38.20;;;;;;;-1.78;76.04;102569.77;1670151;86;21022;-79
2022/03/01 07:58:11;;;;;;;73.77;37.97;;;;;;;-1.67;76.05;102573.32;1670488;85;21038;-78
2022/03/01 08:00:37;;;;;;;71.50;36.57;;;;;;;-1.53;76.02;102571.41;1670195;86;21519;-79
2022/03/01 08:03:04;;;;;;;53.73;28.83;;;;;;;-1.39;76.04;102573.34;1670494;85;21094;-81
2022/03/01 08:05:31;;;;;;;60.67;31.90;;;;;;;-1.25;75.81;102571.41;1670105;86;20986;-79
2022/03/01 08:07:58;;;;;;;52.03;26.73;;;;;;;-1.12;75.61;102565.61;1670370;85;21048;-78
2022/03/01 08:10:26;;;;;;;58.83;29.47;;;;;;;-0.98;75.46;102566.23;1670001;86;21006;-78
2022/03/01 08:12:54;;;;;;;56.57;28.73;;;;;;;-0.85;75.27;102570.66;1669832;86;21097;-80
2022/03/01 08:15:23;;;;;;;44.67;25.10;;;;;;;-0.73;75.07;102573.77;1670084;85;21185;-79
2022/03/01 08:17:52;;;;;;;51.87;25.93;;;;;;;-0.64;74.68;102571.99;1668153;86;20926;-78
2022/03/01 08:20:20;;;;;;;57.30;28.40;;;;;;;-0.57;74.58;102567.59;1605138;89;21066;-78
2022/03/01 08:22:47;;;;;;;59.93;29.17;;;;;;;-0.51;74.37;102562.28;1633119;87;21560;-82
2022/03/01 08:25:15;;;;;;;52.87;26.03;;;;;;;-0.45;74.31;102568.11;1631745;88;21032;-81
2022/03/01 08:27:42;;;;;;;47.90;24.27;;;;;;;-0.35;74.32;102567.70;1643550;85;21154;-80
2022/03/01 08:30:11;;;;;;;46.00;23.40;;;;;;;-0.25;74.12;102565.98;1658580;86;21051;-80
2022/03/01 08:32:38;;;;;;;50.23;23.53;;;;;;;-0.18;74.07;102568.40;1662723;86;21046;-80
2022/03/01 08:35:06;;;;;;;46.97;23.47;;;;;;;-0.08;74.05;102561.95;1662420;86;21024;-81
2022/03/01 08:37:34;;;;;;;46.00;23.30;;;;;;;0.08;74.26;102568.59;1659480;84;21008;-80
2022/03/01 08:40:01;;;;;;;77.57;41.57;;;;;;;0.21;74.02;102561.41;1660803;86;21958;-81
2022/03/01 08:42:28;;;;;;;48.57;28.40;;;;;;;0.30;73.65;102559.59;1653353;86;21507;-80
2022/03/01 08:44:55;;;;;;;47.43;27.40;;;;;;;0.40;73.62;102563.44;1653392;86;21078;-82
2022/03/01 08:47:25;;;;;;;41.13;25.43;;;;;;;0.53;73.53;102559.23;1654064;85;21514;-83
2022/03/01 08:49:53;;;;;;;47.33;25.30;;;;;;;0.65;73.38;102554.53;1651614;86;21076;-81
2022/03/01 08:52:20;;;;;;;67.80;31.60;;;;;;;0.79;73.29;102551.17;1649246;87;21110;-80
2022/03/01 08:54:47;;;;;;;94.00;43.97;;;;;;;0.96;73.23;102554.80;1649010;87;21570;-79
2022/03/01 08:57:14;;;;;;;83.87;43.37;;;;;;;1.14;73.30;102548.13;1656521;86;21092;-78
2022/03/01 08:59:41;;;;;;;39.53;21.50;;;;;;;1.33;73.04;102538.91;1656613;86;21487;-78
2022/03/01 09:02:08;;;;;;;43.73;22.70;;;;;;;1.44;72.43;102536.32;1656267;86;21080;-81
2022/03/01 09:04:36;;;;;;;48.47;25.37;;;;;;;1.53;72.29;102539.63;1656376;86;21127;-84
2022/03/01 09:07:04;;;;;;;42.87;22.40;;;;;;;1.73;72.65;102543.76;1656336;86;21049;-84
2022/03/01 09:09:32;;;;;;;31.00;18.67;;;;;;;1.98;72.49;102535.09;1656334;86;20976;-78
2022/03/01 09:11:59;;;;;;;34.23;18.50;;;;;;;2.21;72.30;102533.23;1656231;86;21198;-84
2022/03/01 09:14:26;;;;;;;32.33;19.00;;;;;;;2.43;72.24;102530.91;1656433;86;21069;-83
2022/03/01 09:16:53;;;;;;;32.87;18.53;;;;;;;2.64;71.82;102531.98;1675424;84;21132;-81
2022/03/01 09:19:20;;;;;;;35.10;20.10;;;;;;;2.82;71.70;102532.05;1689314;85;21017;-75
2022/03/01 09:21:47;;;;;;;33.23;19.70;;;;;;;2.97;71.02;102535.52;1685546;84;21083;-79
2022/03/01 09:24:15;;;;;;;31.23;18.33;;;;;;;3.01;70.46;102530.87;1655219;85;21524;-81
2022/03/01 09:26:42;;;;;;;30.40;18.10;;;;;;;3.13;70.34;102534.69;1655172;86;21061;-75
2022/03/01 09:29:09;;;;;;;33.63;18.33;;;;;;;3.24;69.80;102530.20;1654906;86;21234;-75
2022/03/01 09:31:36;;;;;;;45.63;23.90;;;;;;;3.34;69.51;102525.31;1659822;86;21044;-76
2022/03/01 09:34:03;;;;;;;34.83;19.43;;;;;;;3.47;69.60;102523.06;1662313;86;21080;-78
2022/03/01 09:36:30;;;;;;;32.73;18.90;;;;;;;3.66;69.38;102530.48;1662600;86;21048;-76
2022/03/01 09:38:56;;;;;;;39.53;21.50;;;;;;;3.80;69.01;102529.53;1662216;85;21036;-77
2022/03/01 09:41:24;;;;;;;39.83;20.83;;;;;;;3.95;69.06;102528.59;1662321;86;21165;-79
2022/03/01 09:43:58;;;;;;;33.17;18.83;;;;;;;4.18;68.92;102532.16;1662599;86;21024;-75
2022/03/01 09:46:25;;;;;;;34.60;18.80;;;;;;;4.35;68.43;102524.75;1662642;86;21024;-76
2022/03/01 09:48:52;;;;;;;25.70;16.03;;;;;;;4.47;68.07;102522.45;1662379;86;21005;-75
2022/03/01 09:51:21;;;;;;;27.47;13.70;;;;;;;4.61;67.63;102519.72;1662588;86;21125;-75
2022/03/01 09:53:49;;;;;;;51.10;21.33;;;;;;;4.76;67.56;102509.20;1662523;85;21142;-75
2022/03/01 09:56:18;;;;;;;43.10;20.43;;;;;;;4.92;67.18;102499.57;1662100;86;21033;-76
2022/03/01 09:58:51;;;;;;;31.70;14.77;;;;;;;5.03;66.67;102504.55;1662478;86;21032;-76
2022/03/01 10:01:18;;;;;;;19.13;10.90;;;;;;;5.08;66.04;102502.06;1662290;86;22096;-75
2022/03/01 10:03:52;;;;;;;27.27;13.33;;;;;;;5.25;66.26;102496.74;1662229;86;21637;-79
2022/03/01 10:06:17;;;;;;;20.23;11.70;;;;;;;5.48;66.01;102491.95;1663349;86;21413;-75
2022/03/01 10:08:45;;;;;;;22.32;12.70;;;;;;;5.66;65.66;102495.30;1658938;86;21513;-74
2022/03/01 10:11:12;;;;;;;20.80;11.80;;;;;;;5.92;65.50;102492.24;1659077;86;21092;-74
2022/03/01 10:13:42;;;;;;;16.57;9.77;;;;;;;6.18;65.41;102479.23;1658876;86;21569;-74
2022/03/01 10:16:17;;;;;;;13.30;8.95;;;;;;;6.41;64.70;102476.08;1659290;86;26436;-76
2022/03/01 10:18:55;;;;;;;12.07;8.17;;;;;;;6.56;64.21;102471.05;1658894;86;21147;-75
2022/03/01 10:21:25;;;;;;;14.57;8.43;;;;;;;6.77;63.65;102470.88;1658990;86;22051;-73
2022/03/01 10:23:56;;;;;;;13.48;8.50;;;;;;;6.91;63.10;102464.09;1659033;86;21012;-72
2022/03/01 10:26:30;;;;;;;14.17;8.50;;;;;;;7.07;62.47;102464.70;1658748;86;21494;-76
2022/03/01 10:28:59;;;;;;;13.97;8.77;;;;;;;7.19;62.46;102449.60;1658603;86;21047;-78
2022/03/01 10:31:30;;;;;;;12.23;7.90;;;;;;;7.38;62.13;102442.83;1659096;86;21146;-81
2022/03/01 10:34:02;;;;;;;;;;;;;;;7.54;62.15;102446.45;1661247;86;21043;-76
2022/03/01 10:36:47;;;;;;;14.83;8.93;;;;;;;7.68;61.46;102458.31;1659007;86;20169;-77
2022/03/01 10:39:22;;;;;;;14.37;9.37;;;;;;;7.92;61.56;102449.33;1658970;86;21012;-74
2022/03/01 10:41:51;;;;;;;14.13;7.77;;;;;;;8.14;60.74;102445.55;1658597;86;21072;-75
2022/03/01 10:44:25;;;;;;;12.80;7.90;;;;;;;8.30;60.54;102444.77;1658997;86;21959;-77
2022/03/01 10:46:58;;;;;;;12.30;8.27;;;;;;;8.40;59.82;102430.06;1659019;86;21067;-76
2022/03/01 10:49:32;;;;;;;13.27;7.73;;;;;;;8.54;59.44;102437.96;1658970;86;21048;-76
2022/03/01 10:52:07;;;;;;;11.20;7.47;;;;;;;8.66;59.13;102428.41;1681264;85;21037;-76
2022/03/01 10:54:37;;;;;;;13.47;7.97;;;;;;;8.73;58.54;102423.19;1688321;85;21296;-76
2022/03/01 10:57:11;;;;;;;16.83;10.40;;;;;;;8.71;57.89;102417.97;1688616;85;21114;-76
2022/03/01 10:59:40;;;;;;;12.80;8.23;;;;;;;8.77;57.77;102416.67;1664265;86;21054;-80
2022/03/01 11:02:07;;;;;;;14.18;8.73;;;;;;;8.82;57.41;102412.33;1659568;86;21040;-78
2022/03/01 11:04:35;;;;;;;12.00;8.30;;;;;;;8.98;57.66;102410.63;1658922;86;21536;-85
2022/03/01 11:07:05;;;;;;;12.43;7.85;;;;;;;9.22;57.42;102414.13;1645446;85;21033;-77
2022/03/01 11:09:34;;;;;;;10.58;7.33;;;;;;;9.40;57.13;102411.54;1688355;85;21142;-75
2022/03/01 11:12:03;;;;;;;12.73;7.42;;;;;;;9.54;56.69;102412.84;1688364;85;21088;-75
2022/03/01 11:14:42;;;;;;;11.20;7.70;;;;;;;9.68;56.29;102409.77;1688197;85;21040;-76